PWSweather.com
Personal Weather Stations
Station Observations
STPETERS
BroadstairsGB

BroadstairsGB

Lat: 51.37, Lon: 1.423

Elevation: 141

Station Type: WH1081

Latest ConditionsUpdated 11:45:01 PM GMT Sunday, Dec 21, 2014
Currently Today's Max Today's Min Today's Average
Temperature 53.6°F12.0°C 53.6°F12.0°C 39.7°F4.3°C 46.0°F7.8°C
Dew Point 51.9°F11.1°C 51.9°F11.1°C 36.8°F2.7°C 42.7°F5.9°C
Winds 13.0 mph SW20.9 kmh SW 18.1 mph W29.1 kmh W - 11.1 mph 17.9 kmh
Wind Gusts 22.1 mph35.6 kmh 27.3 mph43.9 kmh - -
Humidity 94% 94% 79% 88%
Pressure 30.15 in1021.0 mb 30.45 in1031.2 mb 30.15 in1021.0 mb -
Hour Temp Dew Point Humidity Winds Wind Gusts Pressure Precip Precip Rate Daily Precip Total
11:45 PM 53.6°F12.0°C 51.9°F11.1°C 94% 13.0 mph SW20.9 kmh SW 22.1 mph35.6 kmh 30.15 in1021.0 mb 0.00 in0.0 mm 0.00 in/hr0.0 mm/hr 0.00 in0.0 mm
11:30 PM 51.4°F10.8°C 49.8°F9.9°C 94% 14.9 mph WSW24.0 kmh WSW 21.3 mph34.3 kmh 30.15 in1021.0 mb 0.00 in0.0 mm 0.00 in/hr0.0 mm/hr 0.00 in0.0 mm
11:15 PM 51.8°F11.0°C 50.1°F10.1°C 94% 16.5 mph WSW26.6 kmh WSW 21.3 mph34.3 kmh 30.16 in1021.3 mb 0.00 in0.0 mm 0.00 in/hr0.0 mm/hr 0.00 in0.0 mm
11:00 PM 51.8°F11.0°C 50.1°F10.1°C 94% 16.4 mph WSW26.4 kmh WSW 22.1 mph35.6 kmh 30.17 in1021.7 mb 0.00 in0.0 mm 0.00 in/hr0.0 mm/hr 0.00 in0.0 mm
10:45 PM 51.6°F10.9°C 50.0°F10.0°C 94% 17.0 mph W27.4 kmh W 25.1 mph40.4 kmh 30.16 in1021.3 mb 0.00 in0.0 mm 0.00 in/hr0.0 mm/hr 0.00 in0.0 mm
10:30 PM 51.6°F10.9°C 50.0°F10.0°C 94% 15.6 mph SW25.1 kmh SW 23.5 mph37.8 kmh 30.17 in1021.7 mb 0.00 in0.0 mm 0.00 in/hr0.0 mm/hr 0.00 in0.0 mm
10:15 PM 52.5°F11.4°C 50.8°F10.4°C 94% 16.6 mph W26.7 kmh W 22.1 mph35.6 kmh 30.17 in1021.7 mb 0.00 in0.0 mm 0.00 in/hr0.0 mm/hr 0.00 in0.0 mm
10:00 PM 51.6°F10.9°C 50.0°F10.0°C 94% 16.8 mph W27.0 kmh W 20.6 mph33.2 kmh 30.18 in1022.0 mb 0.00 in0.0 mm 0.00 in/hr0.0 mm/hr 0.00 in0.0 mm
09:45 PM 51.4°F10.8°C 49.8°F9.9°C 94% 14.7 mph WSW23.7 kmh WSW 17.4 mph28.0 kmh 30.18 in1022.0 mb 0.00 in0.0 mm 0.00 in/hr0.0 mm/hr 0.00 in0.0 mm
09:30 PM 51.3°F10.7°C 49.6°F9.8°C 94% 16.1 mph SW25.9 kmh SW 24.4 mph39.3 kmh 30.18 in1022.0 mb 0.00 in0.0 mm 0.00 in/hr0.0 mm/hr 0.00 in0.0 mm
09:15 PM 51.3°F10.7°C 49.6°F9.8°C 94% 15.1 mph WSW24.3 kmh WSW 19.7 mph31.7 kmh 30.18 in1022.0 mb 0.00 in0.0 mm 0.00 in/hr0.0 mm/hr 0.00 in0.0 mm
09:00 PM 51.1°F10.6°C 49.4°F9.7°C 94% 15.7 mph WSW25.3 kmh WSW 20.6 mph33.2 kmh 30.18 in1022.0 mb 0.00 in0.0 mm 0.00 in/hr0.0 mm/hr 0.00 in0.0 mm
08:45 PM 50.5°F10.3°C 48.9°F9.4°C 94% 18.1 mph W29.1 kmh W 27.3 mph43.9 kmh 30.19 in1022.4 mb 0.00 in0.0 mm 0.00 in/hr0.0 mm/hr 0.00 in0.0 mm
08:30 PM 50.4°F10.2°C 48.7°F9.3°C 94% 16.1 mph WSW25.9 kmh WSW 23.5 mph37.8 kmh 30.18 in1022.0 mb 0.00 in0.0 mm 0.00 in/hr0.0 mm/hr 0.00 in0.0 mm
08:15 PM 50.0°F10.0°C 48.1°F8.9°C 93% 15.5 mph WSW24.9 kmh WSW 19.7 mph31.7 kmh 30.19 in1022.4 mb 0.00 in0.0 mm 0.00 in/hr0.0 mm/hr 0.00 in0.0 mm
08:00 PM 49.8°F9.9°C 47.6°F8.7°C 92% 15.3 mph SSW24.6 kmh SSW 20.6 mph33.2 kmh 30.20 in1022.7 mb 0.00 in0.0 mm 0.00 in/hr0.0 mm/hr 0.00 in0.0 mm
07:45 PM 49.8°F9.9°C 47.3°F8.5°C 91% 14.8 mph W23.8 kmh W 25.9 mph41.7 kmh 30.20 in1022.7 mb 0.00 in0.0 mm 0.00 in/hr0.0 mm/hr 0.00 in0.0 mm
07:30 PM 49.6°F9.8°C 46.8°F8.2°C 90% 15.4 mph SW24.8 kmh SW 18.3 mph29.5 kmh 30.20 in1022.7 mb 0.00 in0.0 mm 0.00 in/hr0.0 mm/hr 0.00 in0.0 mm
07:15 PM 49.6°F9.8°C 46.8°F8.2°C 90% 13.6 mph WSW21.9 kmh WSW 17.4 mph28.0 kmh 30.21 in1023.0 mb 0.00 in0.0 mm 0.00 in/hr0.0 mm/hr 0.00 in0.0 mm
07:00 PM 49.3°F9.6°C 46.5°F8.1°C 90% 15.5 mph WSW24.9 kmh WSW 20.6 mph33.2 kmh 30.21 in1023.0 mb 0.00 in0.0 mm 0.00 in/hr0.0 mm/hr 0.00 in0.0 mm
06:45 PM 48.6°F9.2°C 45.5°F7.5°C 89% 15.3 mph W24.6 kmh W 20.6 mph33.2 kmh 30.21 in1023.0 mb 0.00 in0.0 mm 0.00 in/hr0.0 mm/hr 0.00 in0.0 mm
06:30 PM 48.4°F9.1°C 45.0°F7.2°C 88% 15.3 mph W24.6 kmh W 21.3 mph34.3 kmh 30.21 in1023.0 mb 0.00 in0.0 mm 0.00 in/hr0.0 mm/hr 0.00 in0.0 mm
06:15 PM 48.2°F9.0°C 44.5°F6.9°C 87% 11.6 mph SW18.7 kmh SW 16.8 mph27.0 kmh 30.21 in1023.0 mb 0.00 in0.0 mm 0.00 in/hr0.0 mm/hr 0.00 in0.0 mm
06:00 PM 48.0°F8.9°C 44.0°F6.7°C 86% 12.8 mph SSW20.6 kmh SSW 17.4 mph28.0 kmh 30.22 in1023.4 mb 0.00 in0.0 mm 0.00 in/hr0.0 mm/hr 0.00 in0.0 mm
05:45 PM 48.2°F9.0°C 43.9°F6.6°C 85% 9.9 mph WSW15.9 kmh WSW 13.6 mph21.9 kmh 30.22 in1023.4 mb 0.00 in0.0 mm 0.00 in/hr0.0 mm/hr 0.00 in0.0 mm
05:30 PM 48.4°F9.1°C 43.8°F6.6°C 84% 14.2 mph WSW22.9 kmh WSW 19.0 mph30.6 kmh 30.23 in1023.7 mb 0.00 in0.0 mm 0.00 in/hr0.0 mm/hr 0.00 in0.0 mm
05:15 PM 48.6°F9.2°C 44.0°F6.7°C 84% 12.9 mph SW20.8 kmh SW 17.4 mph28.0 kmh 30.23 in1023.7 mb 0.00 in0.0 mm 0.00 in/hr0.0 mm/hr 0.00 in0.0 mm
05:00 PM 48.9°F9.4°C 44.0°F6.7°C 83% 13.0 mph WSW20.9 kmh WSW 16.8 mph27.0 kmh 30.25 in1024.4 mb 0.00 in0.0 mm 0.00 in/hr0.0 mm/hr 0.00 in0.0 mm
04:45 PM 48.7°F9.3°C 43.8°F6.6°C 83% 15.0 mph WSW24.1 kmh WSW 22.1 mph35.6 kmh 30.25 in1024.4 mb 0.00 in0.0 mm 0.00 in/hr0.0 mm/hr 0.00 in0.0 mm
04:30 PM 48.7°F9.3°C 43.8°F6.6°C 83% 15.0 mph WSW24.1 kmh WSW 21.3 mph34.3 kmh 30.25 in1024.4 mb 0.00 in0.0 mm 0.00 in/hr0.0 mm/hr 0.00 in0.0 mm
04:15 PM 48.7°F9.3°C 43.5°F6.4°C 82% 12.9 mph WSW20.8 kmh WSW 21.3 mph34.3 kmh 30.25 in1024.4 mb 0.00 in0.0 mm 0.00 in/hr0.0 mm/hr 0.00 in0.0 mm
04:00 PM 48.6°F9.2°C 43.3°F6.3°C 82% 11.2 mph W18.0 kmh W 14.5 mph23.3 kmh 30.26 in1024.7 mb 0.00 in0.0 mm 0.00 in/hr0.0 mm/hr 0.00 in0.0 mm
03:45 PM 48.6°F9.2°C 43.3°F6.3°C 82% 13.9 mph W22.4 kmh W 19.7 mph31.7 kmh 30.26 in1024.7 mb 0.00 in0.0 mm 0.00 in/hr0.0 mm/hr 0.00 in0.0 mm
03:30 PM 48.4°F9.1°C 43.1°F6.2°C 82% 13.4 mph SW21.6 kmh SW 19.7 mph31.7 kmh 30.27 in1025.1 mb 0.00 in0.0 mm 0.00 in/hr0.0 mm/hr 0.00 in0.0 mm
03:15 PM 48.6°F9.2°C 43.0°F6.1°C 81% 11.7 mph WSW18.8 kmh WSW 18.3 mph29.5 kmh 30.27 in1025.1 mb 0.00 in0.0 mm 0.00 in/hr0.0 mm/hr 0.00 in0.0 mm
03:00 PM 48.4°F9.1°C 42.8°F6.0°C 81% 15.8 mph WSW25.4 kmh WSW 18.3 mph29.5 kmh 30.26 in1024.7 mb 0.00 in0.0 mm 0.00 in/hr0.0 mm/hr 0.00 in0.0 mm
02:45 PM 48.2°F9.0°C 43.0°F6.1°C 82% 13.4 mph W21.6 kmh W 16.8 mph27.0 kmh 30.27 in1025.1 mb 0.00 in0.0 mm 0.00 in/hr0.0 mm/hr 0.00 in0.0 mm
02:30 PM 48.4°F9.1°C 43.1°F6.2°C 82% 14.6 mph W23.5 kmh W 20.6 mph33.2 kmh 30.27 in1025.1 mb 0.00 in0.0 mm 0.00 in/hr0.0 mm/hr 0.00 in0.0 mm
02:15 PM 48.2°F9.0°C 43.0°F6.1°C 82% 12.8 mph WSW20.6 kmh WSW 18.3 mph29.5 kmh 30.27 in1025.1 mb 0.00 in0.0 mm 0.00 in/hr0.0 mm/hr 0.00 in0.0 mm
02:00 PM 48.4°F9.1°C 42.8°F6.0°C 81% 13.3 mph WSW21.4 kmh WSW 17.4 mph28.0 kmh 30.28 in1025.4 mb 0.00 in0.0 mm 0.00 in/hr0.0 mm/hr 0.00 in0.0 mm
01:45 PM 48.7°F9.3°C 42.5°F5.8°C 79% 15.3 mph W24.6 kmh W 20.6 mph33.2 kmh 30.29 in1025.7 mb 0.00 in0.0 mm 0.00 in/hr0.0 mm/hr 0.00 in0.0 mm
01:30 PM 48.7°F9.3°C 42.5°F5.8°C 79% 16.7 mph W26.9 kmh W 22.8 mph36.7 kmh 30.29 in1025.7 mb 0.00 in0.0 mm 0.00 in/hr0.0 mm/hr 0.00 in0.0 mm
01:15 PM 48.7°F9.3°C 42.9°F6.1°C 80% 16.2 mph W26.1 kmh W 24.4 mph39.3 kmh 30.30 in1026.1 mb 0.00 in0.0 mm 0.00 in/hr0.0 mm/hr 0.00 in0.0 mm
01:00 PM 48.4°F9.1°C 42.8°F6.0°C 81% 9.0 mph SW14.5 kmh SW 12.1 mph19.5 kmh 30.31 in1026.4 mb 0.00 in0.0 mm 0.00 in/hr0.0 mm/hr 0.00 in0.0 mm
12:45 PM 48.6°F9.2°C 43.0°F6.1°C 81% 7.7 mph SW12.4 kmh SW 9.8 mph15.8 kmh 30.32 in1026.8 mb 0.00 in0.0 mm 0.00 in/hr0.0 mm/hr 0.00 in0.0 mm
12:30 PM 48.9°F9.4°C 43.0°F6.1°C 80% 8.0 mph SW12.9 kmh SW 12.1 mph19.5 kmh 30.32 in1026.8 mb 0.00 in0.0 mm 0.00 in/hr0.0 mm/hr 0.00 in0.0 mm
12:15 PM 48.7°F9.3°C 42.9°F6.1°C 80% 11.3 mph W18.2 kmh W 15.2 mph24.5 kmh 30.33 in1027.1 mb 0.00 in0.0 mm 0.00 in/hr0.0 mm/hr 0.00 in0.0 mm
12:00 PM 48.6°F9.2°C 42.7°F5.9°C 80% 13.6 mph W21.9 kmh W 18.3 mph29.5 kmh 30.33 in1027.1 mb 0.00 in0.0 mm 0.00 in/hr0.0 mm/hr 0.00 in0.0 mm
11:45 AM 48.0°F8.9°C 43.1°F6.2°C 83% 12.8 mph W20.6 kmh W 19.7 mph31.7 kmh 30.35 in1027.8 mb 0.00 in0.0 mm 0.00 in/hr0.0 mm/hr 0.00 in0.0 mm
11:30 AM 47.5°F8.6°C 43.2°F6.2°C 85% 12.8 mph W20.6 kmh W 16.8 mph27.0 kmh 30.35 in1027.8 mb 0.00 in0.0 mm 0.00 in/hr0.0 mm/hr 0.00 in0.0 mm
11:15 AM 47.3°F8.5°C 43.6°F6.4°C 87% 11.3 mph WSW18.2 kmh WSW 15.2 mph24.5 kmh 30.37 in1028.4 mb 0.00 in0.0 mm 0.00 in/hr0.0 mm/hr 0.00 in0.0 mm
11:00 AM 46.9°F8.3°C 43.3°F6.3°C 87% 12.3 mph WSW19.8 kmh WSW 15.2 mph24.5 kmh 30.37 in1028.4 mb 0.00 in0.0 mm 0.00 in/hr0.0 mm/hr 0.00 in0.0 mm
10:45 AM 46.9°F8.3°C 43.9°F6.6°C 89% 10.8 mph WSW17.4 kmh WSW 13.0 mph20.9 kmh 30.37 in1028.4 mb 0.00 in0.0 mm 0.00 in/hr0.0 mm/hr 0.00 in0.0 mm
10:30 AM 46.0°F7.8°C 43.3°F6.3°C 90% 10.2 mph WSW16.4 kmh WSW 13.0 mph20.9 kmh 30.37 in1028.4 mb 0.00 in0.0 mm 0.00 in/hr0.0 mm/hr 0.00 in0.0 mm
10:15 AM 45.3°F7.4°C 42.9°F6.1°C 91% 11.3 mph WSW18.2 kmh WSW 15.2 mph24.5 kmh 30.38 in1028.8 mb 0.00 in0.0 mm 0.00 in/hr0.0 mm/hr 0.00 in0.0 mm
10:00 AM 44.6°F7.0°C 42.4°F5.8°C 92% 11.2 mph WSW18.0 kmh WSW 14.5 mph23.3 kmh 30.38 in1028.8 mb 0.00 in0.0 mm 0.00 in/hr0.0 mm/hr 0.00 in0.0 mm
09:45 AM 44.2°F6.8°C 42.1°F5.6°C 92% 10.1 mph W16.3 kmh W 13.6 mph21.9 kmh 30.38 in1028.8 mb 0.00 in0.0 mm 0.00 in/hr0.0 mm/hr 0.00 in0.0 mm
09:30 AM 43.9°F6.6°C 41.7°F5.4°C 92% 8.9 mph WSW14.3 kmh WSW 11.4 mph18.3 kmh 30.38 in1028.8 mb 0.00 in0.0 mm 0.00 in/hr0.0 mm/hr 0.00 in0.0 mm
09:15 AM 43.5°F6.4°C 41.4°F5.2°C 92% 9.2 mph SW14.8 kmh SW 12.1 mph19.5 kmh 30.38 in1028.8 mb 0.00 in0.0 mm 0.00 in/hr0.0 mm/hr 0.00 in0.0 mm
09:00 AM 43.3°F6.3°C 41.5°F5.3°C 93% 10.1 mph SW16.3 kmh SW 16.8 mph27.0 kmh 30.38 in1028.8 mb 0.00 in0.0 mm 0.00 in/hr0.0 mm/hr 0.00 in0.0 mm
08:45 AM 43.2°F6.2°C 41.3°F5.2°C 93% 9.5 mph WSW15.3 kmh WSW 13.6 mph21.9 kmh 30.39 in1029.1 mb 0.00 in0.0 mm 0.00 in/hr0.0 mm/hr 0.00 in0.0 mm
08:30 AM 42.8°F6.0°C 41.2°F5.1°C 94% 9.9 mph WSW15.9 kmh WSW 12.1 mph19.5 kmh 30.39 in1029.1 mb 0.00 in0.0 mm 0.00 in/hr0.0 mm/hr 0.00 in0.0 mm
08:15 AM 42.4°F5.8°C 40.8°F4.9°C 94% 11.0 mph WSW17.7 kmh WSW 14.5 mph23.3 kmh 30.39 in1029.1 mb 0.00 in0.0 mm 0.00 in/hr0.0 mm/hr 0.00 in0.0 mm
08:00 AM 41.9°F5.5°C 40.0°F4.4°C 93% 8.9 mph SW14.3 kmh SW 10.7 mph17.2 kmh 30.39 in1029.1 mb 0.00 in0.0 mm 0.00 in/hr0.0 mm/hr 0.00 in0.0 mm
07:45 AM 42.1°F5.6°C 40.2°F4.6°C 93% 8.8 mph SW14.2 kmh SW 12.1 mph19.5 kmh 30.39 in1029.1 mb 0.00 in0.0 mm 0.00 in/hr0.0 mm/hr 0.00 in0.0 mm
07:30 AM 41.9°F5.5°C 40.0°F4.4°C 93% 9.8 mph WSW15.8 kmh WSW 12.1 mph19.5 kmh 30.39 in1029.1 mb 0.00 in0.0 mm 0.00 in/hr0.0 mm/hr 0.00 in0.0 mm
07:15 AM 41.9°F5.5°C 40.0°F4.4°C 93% 10.7 mph WSW17.2 kmh WSW 13.0 mph20.9 kmh 30.38 in1028.8 mb 0.00 in0.0 mm 0.00 in/hr0.0 mm/hr 0.00 in0.0 mm
07:00 AM 41.9°F5.5°C 39.7°F4.3°C 92% 7.0 mph SW11.3 kmh SW 9.2 mph14.8 kmh 30.37 in1028.4 mb 0.00 in0.0 mm 0.00 in/hr0.0 mm/hr 0.00 in0.0 mm
06:45 AM 42.3°F5.7°C 40.1°F4.5°C 92% 8.6 mph WSW13.8 kmh WSW 11.4 mph18.3 kmh 30.38 in1028.8 mb 0.00 in0.0 mm 0.00 in/hr0.0 mm/hr 0.00 in0.0 mm
06:30 AM 42.1°F5.6°C 39.9°F4.4°C 92% 8.2 mph WSW13.2 kmh WSW 11.4 mph18.3 kmh 30.39 in1029.1 mb 0.00 in0.0 mm 0.00 in/hr0.0 mm/hr 0.00 in0.0 mm
06:15 AM 41.9°F5.5°C 39.7°F4.3°C 92% 8.7 mph WSW14.0 kmh WSW 11.4 mph18.3 kmh 30.41 in1029.8 mb 0.00 in0.0 mm 0.00 in/hr0.0 mm/hr 0.00 in0.0 mm
06:00 AM 41.5°F5.3°C 39.4°F4.1°C 92% 10.1 mph W16.3 kmh W 15.9 mph25.6 kmh 30.41 in1029.8 mb 0.00 in0.0 mm 0.00 in/hr0.0 mm/hr 0.00 in0.0 mm
05:45 AM 41.5°F5.3°C 39.4°F4.1°C 92% 7.1 mph SW11.4 kmh SW 9.8 mph15.8 kmh 30.41 in1029.8 mb 0.00 in0.0 mm 0.00 in/hr0.0 mm/hr 0.00 in0.0 mm
05:30 AM 41.5°F5.3°C 39.7°F4.3°C 93% 5.9 mph WSW9.5 kmh WSW 7.6 mph12.2 kmh 30.42 in1030.1 mb 0.00 in0.0 mm 0.00 in/hr0.0 mm/hr 0.00 in0.0 mm
05:15 AM 41.0°F5.0°C 38.9°F3.8°C 92% 8.3 mph WSW13.4 kmh WSW 11.4 mph18.3 kmh 30.42 in1030.1 mb 0.00 in0.0 mm 0.00 in/hr0.0 mm/hr 0.00 in0.0 mm
05:00 AM 40.5°F4.7°C 38.3°F3.5°C 92% 7.5 mph WSW12.1 kmh WSW 9.2 mph14.8 kmh 30.42 in1030.1 mb 0.00 in0.0 mm 0.00 in/hr0.0 mm/hr 0.00 in0.0 mm
04:45 AM 40.3°F4.6°C 37.9°F3.3°C 91% 7.5 mph WSW12.1 kmh WSW 9.8 mph15.8 kmh 30.42 in1030.1 mb 0.00 in0.0 mm 0.00 in/hr0.0 mm/hr 0.00 in0.0 mm
04:30 AM 39.9°F4.4°C 37.2°F2.9°C 90% 7.1 mph WSW11.4 kmh WSW 9.2 mph14.8 kmh 30.42 in1030.1 mb 0.00 in0.0 mm 0.00 in/hr0.0 mm/hr 0.00 in0.0 mm
04:15 AM 39.7°F4.3°C 37.1°F2.8°C 90% 5.4 mph WSW8.7 kmh WSW 7.6 mph12.2 kmh 30.42 in1030.1 mb 0.00 in0.0 mm 0.00 in/hr0.0 mm/hr 0.00 in0.0 mm
04:00 AM 39.7°F4.3°C 36.8°F2.7°C 89% 6.6 mph WSW10.6 kmh WSW 8.3 mph13.4 kmh 30.42 in1030.1 mb 0.00 in0.0 mm 0.00 in/hr0.0 mm/hr 0.00 in0.0 mm
03:45 AM 40.3°F4.6°C 37.3°F2.9°C 89% 6.7 mph WSW10.8 kmh WSW 9.8 mph15.8 kmh 30.43 in1030.5 mb 0.00 in0.0 mm 0.00 in/hr0.0 mm/hr 0.00 in0.0 mm
03:30 AM 40.3°F4.6°C 37.3°F2.9°C 89% 8.1 mph W13.0 kmh W 10.7 mph17.2 kmh 30.44 in1030.8 mb 0.00 in0.0 mm 0.00 in/hr0.0 mm/hr 0.00 in0.0 mm
03:15 AM 40.3°F4.6°C 37.3°F2.9°C 89% 6.1 mph W9.8 kmh W 7.6 mph12.2 kmh 30.43 in1030.5 mb 0.00 in0.0 mm 0.00 in/hr0.0 mm/hr 0.00 in0.0 mm
03:00 AM 40.3°F4.6°C 37.3°F2.9°C 89% 5.4 mph W8.7 kmh W 9.2 mph14.8 kmh 30.44 in1030.8 mb 0.00 in0.0 mm 0.00 in/hr0.0 mm/hr 0.00 in0.0 mm
02:45 AM 43.3°F6.3°C 40.0°F4.4°C 88% 4.7 mph WSW7.6 kmh WSW 7.6 mph12.2 kmh 30.44 in1030.8 mb 0.00 in0.0 mm 0.00 in/hr0.0 mm/hr 0.00 in0.0 mm
02:30 AM 40.8°F4.9°C 37.5°F3.1°C 88% 4.9 mph W7.9 kmh W 8.3 mph13.4 kmh 30.43 in1030.5 mb 0.00 in0.0 mm 0.00 in/hr0.0 mm/hr 0.00 in0.0 mm
02:15 AM 41.2°F5.1°C 37.9°F3.3°C 88% 5.2 mph W8.4 kmh W 7.6 mph12.2 kmh 30.45 in1031.2 mb 0.00 in0.0 mm 0.00 in/hr0.0 mm/hr 0.00 in0.0 mm
02:00 AM 41.0°F5.0°C 37.7°F3.2°C 88% 6.4 mph WSW10.3 kmh WSW 9.2 mph14.8 kmh 30.45 in1031.2 mb 0.00 in0.0 mm 0.00 in/hr0.0 mm/hr 0.00 in0.0 mm
01:45 AM 41.0°F5.0°C 37.7°F3.2°C 88% 5.9 mph WNW9.5 kmh WNW 8.3 mph13.4 kmh 30.44 in1030.8 mb 0.00 in0.0 mm 0.00 in/hr0.0 mm/hr 0.00 in0.0 mm
01:30 AM 41.2°F5.1°C 37.9°F3.3°C 88% 5.7 mph WNW9.2 kmh WNW 7.6 mph12.2 kmh 30.45 in1031.2 mb 0.00 in0.0 mm 0.00 in/hr0.0 mm/hr 0.00 in0.0 mm
01:15 AM 41.2°F5.1°C 37.9°F3.3°C 88% 4.9 mph NW7.9 kmh NW 6.0 mph9.7 kmh 30.45 in1031.2 mb 0.00 in0.0 mm 0.00 in/hr0.0 mm/hr 0.00 in0.0 mm
01:00 AM 41.4°F5.2°C 38.1°F3.4°C 88% 5.9 mph NW9.5 kmh NW 8.3 mph13.4 kmh 30.44 in1030.8 mb 0.00 in0.0 mm 0.00 in/hr0.0 mm/hr 0.00 in0.0 mm
12:45 AM 41.0°F5.0°C 37.7°F3.2°C 88% 5.5 mph W8.9 kmh W 6.9 mph11.1 kmh 30.44 in1030.8 mb 0.00 in0.0 mm 0.00 in/hr0.0 mm/hr 0.00 in0.0 mm
12:30 AM 41.2°F5.1°C 37.6°F3.1°C 87% 4.2 mph NW6.8 kmh NW 6.9 mph11.1 kmh 30.44 in1030.8 mb 0.00 in0.0 mm 0.00 in/hr0.0 mm/hr 0.00 in0.0 mm
12:15 AM 41.5°F5.3°C 38.0°F3.3°C 87% 4.0 mph W6.4 kmh W 5.4 mph8.7 kmh 30.43 in1030.5 mb 0.00 in0.0 mm 0.00 in/hr0.0 mm/hr 0.00 in0.0 mm
12:00 AM 41.9°F5.5°C 38.3°F3.5°C 87% 4.4 mph WNW7.1 kmh WNW 6.0 mph9.7 kmh 30.43 in1030.5 mb 0.00 in0.0 mm 0.00 in/hr0.0 mm/hr 0.00 in0.0 mm